createdAt,value
2022-11-29T00:00:53.760Z,-0.98
2022-11-29T00:01:53.944Z,-0.99
2022-11-29T00:02:53.953Z,-1.01
2022-11-29T00:03:53.709Z,-1.00
2022-11-29T00:04:53.729Z,-1.02
2022-11-29T00:05:53.710Z,-1.03
2022-11-29T00:06:53.727Z,-1.03
2022-11-29T00:07:53.874Z,-1.04
2022-11-29T00:08:53.763Z,-1.03
2022-11-29T00:09:53.730Z,-1.06
2022-11-29T00:10:53.726Z,-1.08
2022-11-29T00:11:53.715Z,-1.09
2022-11-29T00:12:53.766Z,-1.06
2022-11-29T00:13:53.748Z,-1.06
2022-11-29T00:14:53.769Z,-1.08
2022-11-29T00:15:53.745Z,-1.05
2022-11-29T00:16:53.835Z,-1.04
2022-11-29T00:17:53.887Z,-1.02
2022-11-29T00:18:53.799Z,-1.04
2022-11-29T00:19:53.782Z,-1.04
2022-11-29T00:20:53.779Z,-1.02
2022-11-29T00:21:53.764Z,-1.04
2022-11-29T00:22:53.765Z,-1.00
2022-11-29T00:23:53.762Z,-1.00
2022-11-29T00:24:53.784Z,-1.00
2022-11-29T00:25:53.760Z,-1.00
2022-11-29T00:26:53.780Z,-1.01
2022-11-29T00:27:53.770Z,-1.01
2022-11-29T00:28:53.957Z,-1.01
2022-11-29T00:29:53.767Z,-1.03
2022-11-29T00:30:54.270Z,-1.08
2022-11-29T00:31:53.961Z,-1.09
2022-11-29T00:32:57.685Z,-1.10
2022-11-29T00:34:02.713Z,-1.10
2022-11-29T00:35:08.129Z,-1.10
2022-11-29T00:36:02.764Z,-1.08
2022-11-29T00:37:02.779Z,-1.02
2022-11-29T00:38:02.739Z,-1.04
2022-11-29T00:39:02.774Z,-1.08
2022-11-29T00:40:02.743Z,-1.11
2022-11-29T00:41:02.748Z,-1.12
2022-11-29T00:42:02.853Z,-1.08
2022-11-29T00:43:02.739Z,-1.11
2022-11-29T00:44:02.718Z,-1.10
2022-11-29T00:45:02.712Z,-1.10
2022-11-29T00:46:02.720Z,-1.11
2022-11-29T00:47:02.695Z,-1.15
2022-11-29T00:48:02.699Z,-1.13
2022-11-29T00:49:02.678Z,-1.15
2022-11-29T00:50:02.685Z,-1.13
2022-11-29T00:51:02.663Z,-1.15
2022-11-29T00:52:02.657Z,-1.14
2022-11-29T00:53:02.649Z,-1.17
2022-11-29T00:54:02.745Z,-1.16
2022-11-29T00:55:02.647Z,-1.18
2022-11-29T00:56:02.636Z,-1.17
2022-11-29T00:57:02.640Z,-1.17
2022-11-29T00:58:02.612Z,-1.16
2022-11-29T00:59:02.622Z,-1.18
2022-11-29T01:00:02.609Z,-1.17
2022-11-29T01:01:02.655Z,-1.16
2022-11-29T01:02:03.041Z,-1.16
2022-11-29T01:03:02.591Z,-1.16
2022-11-29T01:04:02.576Z,-1.14
2022-11-29T01:05:02.572Z,-1.16
2022-11-29T01:06:02.696Z,-1.14
2022-11-29T01:07:02.567Z,-1.13
2022-11-29T01:08:02.575Z,-1.12
2022-11-29T01:09:02.580Z,-1.13
2022-11-29T01:10:02.565Z,-1.12
2022-11-29T01:11:08.565Z,-1.11
2022-11-29T01:12:08.572Z,-1.12
2022-11-29T01:13:08.546Z,-1.09
2022-11-29T01:14:08.579Z,-1.09
2022-11-29T01:15:08.530Z,-1.09
2022-11-29T01:16:08.590Z,-1.09
2022-11-29T01:17:08.601Z,-1.09
2022-11-29T01:18:08.563Z,-1.05
2022-11-29T01:19:08.524Z,-1.08
2022-11-29T01:20:08.548Z,-1.08
2022-11-29T01:21:08.516Z,-1.06
2022-11-29T01:22:08.973Z,-1.08
2022-11-29T01:23:08.520Z,-1.09
2022-11-29T01:24:08.550Z,-1.06
2022-11-29T01:25:08.522Z,-1.06
2022-11-29T01:26:08.538Z,-1.05
2022-11-29T01:27:08.525Z,-1.05
2022-11-29T01:28:08.671Z,-1.05
2022-11-29T01:29:08.499Z,-1.04
2022-11-29T01:30:08.525Z,-1.00
2022-11-29T01:31:08.548Z,-1.03
2022-11-29T01:32:08.510Z,-1.03
2022-11-29T01:33:08.580Z,-1.04
2022-11-29T01:34:08.701Z,-1.03
2022-11-29T01:35:13.407Z,-1.02
2022-11-29T01:36:13.494Z,-1.02
2022-11-29T01:37:13.513Z,-1.05
2022-11-29T01:38:13.485Z,-1.09
2022-11-29T01:39:13.534Z,-1.09
2022-11-29T01:40:13.481Z,-1.10
2022-11-29T01:41:13.532Z,-1.10
2022-11-29T01:42:13.487Z,-1.08
2022-11-29T01:43:13.580Z,-1.09
2022-11-29T01:44:13.509Z,-1.09
2022-11-29T01:45:13.545Z,-1.08
2022-11-29T01:46:13.540Z,-1.06
2022-11-29T01:47:13.500Z,-1.08
2022-11-29T01:48:13.472Z,-1.04
2022-11-29T01:49:13.515Z,-1.08
2022-11-29T01:50:13.471Z,-1.05
2022-11-29T01:51:13.530Z,-1.09
2022-11-29T01:52:13.468Z,-1.09
2022-11-29T01:53:13.490Z,-1.10
2022-11-29T01:54:13.611Z,-1.11
2022-11-29T01:55:13.491Z,-1.10
2022-11-29T01:56:13.492Z,-1.12
2022-11-29T01:57:13.500Z,-1.11
2022-11-29T01:58:13.468Z,-1.12
2022-11-29T01:59:13.480Z,-1.13
2022-11-29T02:00:13.453Z,-1.11
2022-11-29T02:01:13.501Z,-1.13
2022-11-29T02:02:13.495Z,-1.09
2022-11-29T02:03:13.476Z,-1.09
2022-11-29T02:04:13.457Z,-1.09
2022-11-29T02:05:13.473Z,-1.10
2022-11-29T02:06:13.446Z,-1.11
2022-11-29T02:07:13.465Z,-1.06
2022-11-29T02:08:13.447Z,-1.10
2022-11-29T02:09:13.565Z,-1.12
2022-11-29T02:10:13.427Z,-1.11
2022-11-29T02:11:13.459Z,-1.12
2022-11-29T02:12:13.411Z,-1.13
2022-11-29T02:13:13.431Z,-1.15
2022-11-29T02:14:13.404Z,-1.16
2022-11-29T02:15:13.448Z,-1.12
2022-11-29T02:16:13.483Z,-1.14
2022-11-29T02:17:13.403Z,-1.11
2022-11-29T02:18:13.380Z,-1.12
2022-11-29T02:19:13.392Z,-1.13
2022-11-29T02:22:07.316Z,-1.15
2022-11-29T02:23:07.373Z,-1.14
2022-11-29T02:24:07.332Z,-1.13
2022-11-29T02:25:07.371Z,-1.12
2022-11-29T02:26:07.338Z,-1.13
2022-11-29T02:27:07.397Z,-1.10
2022-11-29T02:28:07.338Z,-1.09
2022-11-29T02:29:07.344Z,-1.08
2022-11-29T02:30:07.327Z,-1.09
2022-11-29T02:31:07.391Z,-1.08
2022-11-29T02:32:07.324Z,-1.08
2022-11-29T02:33:07.464Z,-1.09
2022-11-29T02:34:07.317Z,-1.09
2022-11-29T02:35:07.329Z,-1.09
2022-11-29T02:36:07.330Z,-1.08
2022-11-29T02:37:11.429Z,-1.06
2022-11-29T02:38:07.481Z,-1.06
2022-11-29T02:39:07.450Z,-1.05
2022-11-29T02:40:07.310Z,-1.06
2022-11-29T02:41:07.318Z,-1.06
2022-11-29T02:42:07.299Z,-1.05
2022-11-29T02:43:07.347Z,-1.08
2022-11-29T02:44:07.316Z,-1.08
2022-11-29T02:45:07.375Z,-1.10
2022-11-29T02:46:07.363Z,-1.12
2022-11-29T02:47:07.339Z,-1.12
2022-11-29T02:48:07.311Z,-1.13
2022-11-29T02:49:07.486Z,-1.13
2022-11-29T02:50:07.303Z,-1.13
2022-11-29T02:51:07.355Z,-1.15
2022-11-29T02:52:07.282Z,-1.15
2022-11-29T02:53:07.292Z,-1.18
2022-11-29T02:54:07.274Z,-1.16
2022-11-29T02:55:07.345Z,-1.18
2022-11-29T02:56:07.284Z,-1.16
2022-11-29T02:57:07.390Z,-1.15
2022-11-29T02:58:07.259Z,-1.15
2022-11-29T02:59:07.291Z,-1.16
2022-11-29T03:00:07.282Z,-1.14
2022-11-29T03:01:07.313Z,-1.15
2022-11-29T03:02:07.323Z,-1.12
2022-11-29T03:03:07.324Z,-1.13
2022-11-29T03:04:07.278Z,-1.13
2022-11-29T03:05:07.278Z,-1.15
2022-11-29T03:06:07.274Z,-1.13
2022-11-29T03:07:07.292Z,-1.13
2022-11-29T03:08:07.248Z,-1.13
2022-11-29T03:09:07.295Z,-1.11
2022-11-29T03:10:07.255Z,-1.13
2022-11-29T03:11:07.389Z,-1.13
2022-11-29T03:12:07.254Z,-1.15
2022-11-29T03:13:07.312Z,-1.14
2022-11-29T03:14:07.274Z,-1.16
2022-11-29T03:15:07.342Z,-1.17
2022-11-29T03:16:07.329Z,-1.15
2022-11-29T03:17:07.329Z,-1.18
2022-11-29T03:18:07.310Z,-1.21
2022-11-29T03:19:07.337Z,-1.24
2022-11-29T03:20:07.306Z,-1.27
2022-11-29T03:21:07.348Z,-1.21
2022-11-29T03:22:07.475Z,-1.23
2022-11-29T03:23:07.352Z,-1.25
2022-11-29T03:24:07.323Z,-1.25
2022-11-29T03:25:07.344Z,-1.24
2022-11-29T03:26:07.320Z,-1.23
2022-11-29T03:27:07.381Z,-1.20
2022-11-29T03:28:07.315Z,-1.19
2022-11-29T03:29:07.416Z,-1.21
2022-11-29T03:30:07.340Z,-1.19
2022-11-29T03:31:07.432Z,-1.19
2022-11-29T03:32:07.352Z,-1.20
2022-11-29T03:33:07.440Z,-1.19
2022-11-29T03:34:07.353Z,-1.25
2022-11-29T03:35:12.297Z,-1.21
2022-11-29T03:36:12.385Z,-1.20
2022-11-29T03:37:12.355Z,-1.23
2022-11-29T03:38:12.413Z,-1.20
2022-11-29T03:39:12.378Z,-1.21
2022-11-29T03:40:12.394Z,-1.21
2022-11-29T03:41:12.364Z,-1.21
2022-11-29T03:42:12.376Z,-1.20
2022-11-29T03:43:12.545Z,-1.23
2022-11-29T03:44:12.380Z,-1.21
2022-11-29T03:45:12.387Z,-1.17
2022-11-29T03:46:12.523Z,-1.18
2022-11-29T03:47:12.378Z,-1.19
2022-11-29T03:48:12.430Z,-1.15
2022-11-29T03:49:12.389Z,-1.16
2022-11-29T03:50:12.408Z,-1.15
2022-11-29T03:51:12.396Z,-1.15
2022-11-29T03:52:17.468Z,-1.15
2022-11-29T03:53:17.464Z,-1.14
2022-11-29T03:54:17.402Z,-1.15
2022-11-29T03:55:17.440Z,-1.18
2022-11-29T03:56:17.398Z,-1.19
2022-11-29T03:57:17.413Z,-1.20
2022-11-29T03:58:17.418Z,-1.21
2022-11-29T03:59:17.407Z,-1.20
2022-11-29T04:00:17.380Z,-1.21
2022-11-29T04:01:21.437Z,-1.20
2022-11-29T04:02:25.776Z,-1.20
2022-11-29T04:03:30.456Z,-1.20
2022-11-29T04:04:36.348Z,-1.19
2022-11-29T04:05:36.445Z,-1.20
2022-11-29T04:06:36.408Z,-1.20
2022-11-29T04:07:36.479Z,-1.23
2022-11-29T04:08:36.436Z,-1.19
2022-11-29T04:09:36.540Z,-1.19
2022-11-29T04:10:36.434Z,-1.17
2022-11-29T04:11:36.451Z,-1.19
2022-11-29T04:12:36.422Z,-1.21
2022-11-29T04:13:36.573Z,-1.20
2022-11-29T04:14:36.524Z,-1.21
2022-11-29T04:15:36.555Z,-1.20
2022-11-29T04:16:36.456Z,-1.20
2022-11-29T04:17:36.470Z,-1.20
2022-11-29T04:18:36.451Z,-1.18
2022-11-29T04:19:36.466Z,-1.17
2022-11-29T04:20:39.695Z,-1.18
2022-11-29T04:21:36.445Z,-1.18
2022-11-29T04:22:36.424Z,-1.18
2022-11-29T04:23:36.841Z,-1.18
2022-11-29T04:24:36.483Z,-1.17
2022-11-29T04:25:36.551Z,-1.20
2022-11-29T04:26:36.402Z,-1.19
2022-11-29T04:27:36.412Z,-1.21
2022-11-29T04:28:36.402Z,-1.20
2022-11-29T04:29:36.446Z,-1.19
2022-11-29T04:30:36.372Z,-1.21
2022-11-29T04:31:36.597Z,-1.19
2022-11-29T04:32:36.372Z,-1.20
2022-11-29T04:33:36.430Z,-1.23
2022-11-29T04:34:36.354Z,-1.20
2022-11-29T04:35:36.552Z,-1.20
2022-11-29T04:36:36.346Z,-1.21
2022-11-29T04:37:36.379Z,-1.19
2022-11-29T04:38:36.348Z,-1.19
2022-11-29T04:39:36.358Z,-1.19
2022-11-29T04:40:36.333Z,-1.19
2022-11-29T04:41:36.377Z,-1.18
2022-11-29T04:42:36.365Z,-1.23
2022-11-29T04:43:36.456Z,-1.24
2022-11-29T04:44:36.351Z,-1.25
2022-11-29T04:45:36.370Z,-1.24
2022-11-29T04:46:36.551Z,-1.24
2022-11-29T04:47:36.378Z,-1.27
2022-11-29T04:48:36.348Z,-1.25
2022-11-29T04:49:36.374Z,-1.28
2022-11-29T04:50:36.340Z,-1.29
2022-11-29T04:51:36.372Z,-1.28
2022-11-29T04:52:36.330Z,-1.27
2022-11-29T04:53:36.367Z,-1.27
2022-11-29T04:54:36.354Z,-1.27
2022-11-29T04:55:36.369Z,-1.27
2022-11-29T04:56:36.338Z,-1.29
2022-11-29T04:57:36.485Z,-1.28
2022-11-29T04:58:36.350Z,-1.26
2022-11-29T04:59:36.381Z,-1.28
2022-11-29T05:00:36.347Z,-1.28
2022-11-29T05:01:36.527Z,-1.29
2022-11-29T05:02:36.403Z,-1.28
2022-11-29T05:03:36.364Z,-1.27
2022-11-29T05:04:36.348Z,-1.28
2022-11-29T05:05:36.388Z,-1.28
2022-11-29T05:06:36.341Z,-1.30
2022-11-29T05:07:36.411Z,-1.27
2022-11-29T05:08:36.355Z,-1.27
2022-11-29T05:09:36.360Z,-1.26
2022-11-29T05:10:36.348Z,-1.28
2022-11-29T05:11:36.363Z,-1.26
2022-11-29T05:12:36.349Z,-1.26
2022-11-29T05:13:36.527Z,-1.25
2022-11-29T05:14:36.364Z,-1.25
2022-11-29T05:15:36.446Z,-1.28
2022-11-29T05:16:36.377Z,-1.27
2022-11-29T05:17:36.424Z,-1.26
2022-11-29T05:18:36.419Z,-1.28
2022-11-29T05:19:36.513Z,-1.26
2022-11-29T05:20:36.382Z,-1.26
2022-11-29T05:21:36.412Z,-1.27
2022-11-29T05:22:36.399Z,-1.28
2022-11-29T05:23:36.416Z,-1.29
2022-11-29T05:24:36.390Z,-1.30
2022-11-29T05:25:36.535Z,-1.30
2022-11-29T05:26:36.391Z,-1.32
2022-11-29T05:27:36.428Z,-1.31
2022-11-29T05:28:36.405Z,-1.32
2022-11-29T05:29:36.567Z,-1.31
2022-11-29T05:30:36.408Z,-1.31
2022-11-29T05:31:36.580Z,-1.33
2022-11-29T05:32:36.398Z,-1.32
2022-11-29T05:33:36.421Z,-1.31
2022-11-29T05:34:36.385Z,-1.31
2022-11-29T05:35:36.409Z,-1.30
2022-11-29T05:36:36.378Z,-1.31
2022-11-29T05:37:36.505Z,-1.33
2022-11-29T05:40:30.348Z,-1.32
2022-11-29T05:41:30.410Z,-1.35
2022-11-29T05:42:30.416Z,-1.35
2022-11-29T05:43:30.537Z,-1.36
2022-11-29T05:44:30.397Z,-1.35
2022-11-29T05:45:30.396Z,-1.35
2022-11-29T05:46:30.439Z,-1.36
2022-11-29T05:47:31.679Z,-1.35
2022-11-29T05:48:30.330Z,-1.33
2022-11-29T05:49:30.377Z,-1.33
2022-11-29T05:50:30.286Z,-1.33
2022-11-29T05:51:30.329Z,-1.35
2022-11-29T05:52:30.254Z,-1.32
2022-11-29T05:53:30.272Z,-1.34
2022-11-29T05:54:30.309Z,-1.34
2022-11-29T05:55:30.291Z,-1.35
2022-11-29T05:56:30.244Z,-1.38
2022-11-29T05:57:30.207Z,-1.34
2022-11-29T05:58:30.866Z,-1.33
2022-11-29T05:59:30.233Z,-1.33
2022-11-29T06:00:30.191Z,-1.33
2022-11-29T06:01:30.400Z,-1.33
2022-11-29T06:02:30.692Z,-1.33
2022-11-29T06:03:30.192Z,-1.34
2022-11-29T06:04:30.166Z,-1.33
2022-11-29T06:05:30.182Z,-1.34
2022-11-29T06:06:30.142Z,-1.32
2022-11-29T06:07:30.186Z,-1.35
2022-11-29T06:08:30.125Z,-1.36
2022-11-29T06:09:35.993Z,-1.36
2022-11-29T06:10:41.064Z,-1.38
2022-11-29T06:11:41.075Z,-1.40
2022-11-29T06:12:41.181Z,-1.40
2022-11-29T06:13:41.099Z,-1.36
2022-11-29T06:14:41.046Z,-1.38
2022-11-29T06:15:41.075Z,-1.41
2022-11-29T06:16:41.030Z,-1.40
2022-11-29T06:17:41.040Z,-1.41
2022-11-29T06:18:41.107Z,-1.41
2022-11-29T06:19:41.041Z,-1.45
2022-11-29T06:20:40.993Z,-1.45
2022-11-29T06:21:40.985Z,-1.45
2022-11-29T06:22:40.979Z,-1.46
2022-11-29T06:23:40.969Z,-1.45
2022-11-29T06:24:40.953Z,-1.45
2022-11-29T06:25:40.960Z,-1.48
2022-11-29T06:26:40.920Z,-1.51
2022-11-29T06:27:40.933Z,-1.49
2022-11-29T06:28:40.925Z,-1.51
2022-11-29T06:29:40.908Z,-1.50
2022-11-29T06:30:40.970Z,-1.48
2022-11-29T06:31:46.867Z,-1.48
2022-11-29T06:32:46.904Z,-1.50
2022-11-29T06:33:46.878Z,-1.46
2022-11-29T06:34:50.786Z,-1.48
2022-11-29T06:35:50.877Z,-1.47
2022-11-29T06:36:50.848Z,-1.49
2022-11-29T06:37:50.845Z,-1.53
2022-11-29T06:38:50.842Z,-1.49
2022-11-29T06:39:50.868Z,-1.48
2022-11-29T06:40:50.834Z,-1.47
2022-11-29T06:41:50.974Z,-1.48
2022-11-29T06:42:50.809Z,-1.47
2022-11-29T06:43:50.902Z,-1.46
2022-11-29T06:44:50.795Z,-1.46
2022-11-29T06:45:50.804Z,-1.45
2022-11-29T06:46:50.893Z,-1.45
2022-11-29T06:47:50.792Z,-1.49
2022-11-29T06:48:50.760Z,-1.47
2022-11-29T06:49:50.778Z,-1.48
2022-11-29T06:50:50.758Z,-1.45
2022-11-29T06:51:50.796Z,-1.45
2022-11-29T06:52:50.766Z,-1.50
2022-11-29T06:53:50.823Z,-1.50
2022-11-29T06:54:50.856Z,-1.54
2022-11-29T06:55:50.760Z,-1.54
2022-11-29T06:56:50.737Z,-1.51
2022-11-29T06:57:50.749Z,-1.51
2022-11-29T06:58:50.757Z,-1.51
2022-11-29T06:59:50.904Z,-1.54
2022-11-29T07:00:50.758Z,-1.53
2022-11-29T07:01:50.761Z,-1.53
2022-11-29T07:02:50.675Z,-1.51
2022-11-29T07:03:50.706Z,-1.54
2022-11-29T07:04:50.975Z,-1.60
2022-11-29T07:05:50.826Z,-1.57
2022-11-29T07:06:50.691Z,-1.59
2022-11-29T07:07:51.181Z,-1.57
2022-11-29T07:08:50.685Z,-1.58
2022-11-29T07:09:50.666Z,-1.57
2022-11-29T07:10:50.671Z,-1.59
2022-11-29T07:11:50.777Z,-1.56
2022-11-29T07:12:50.633Z,-1.56
2022-11-29T07:13:50.636Z,-1.55
2022-11-29T07:14:50.645Z,-1.58
2022-11-29T07:15:50.772Z,-1.57
2022-11-29T07:16:55.822Z,-1.58
2022-11-29T07:17:50.608Z,-1.59
2022-11-29T07:18:50.579Z,-1.57
2022-11-29T07:19:50.605Z,-1.60
2022-11-29T07:20:50.551Z,-1.57
2022-11-29T07:21:50.587Z,-1.60
2022-11-29T07:22:50.543Z,-1.58
2022-11-29T07:23:50.580Z,-1.57
2022-11-29T07:24:50.568Z,-1.57
2022-11-29T07:25:50.597Z,-1.57
2022-11-29T07:26:53.943Z,-1.57
2022-11-29T07:27:56.574Z,-1.59
2022-11-29T07:28:56.678Z,-1.58
2022-11-29T07:29:56.481Z,-1.57
2022-11-29T07:30:56.498Z,-1.60
2022-11-29T07:31:56.481Z,-1.59
2022-11-29T07:33:00.094Z,-1.58
2022-11-29T07:33:56.968Z,-1.55
2022-11-29T07:34:56.481Z,-1.55
2022-11-29T07:35:56.447Z,-1.59
2022-11-29T07:36:56.458Z,-1.59
2022-11-29T07:37:56.433Z,-1.60
2022-11-29T07:38:56.547Z,-1.60
2022-11-29T07:39:56.439Z,-1.60
2022-11-29T07:40:56.478Z,-1.62
2022-11-29T07:41:56.451Z,-1.63
2022-11-29T07:42:56.443Z,-1.63
2022-11-29T07:43:56.415Z,-1.64
2022-11-29T07:44:56.446Z,-1.64
2022-11-29T07:45:56.400Z,-1.62
2022-11-29T07:46:56.458Z,-1.63
2022-11-29T07:47:56.393Z,-1.64
2022-11-29T07:49:02.308Z,-1.64
2022-11-29T07:50:02.373Z,-1.61
2022-11-29T07:51:02.357Z,-1.61
2022-11-29T07:52:08.254Z,-1.62
2022-11-29T07:53:08.381Z,-1.62
2022-11-29T07:54:08.314Z,-1.60
2022-11-29T07:55:08.332Z,-1.62
2022-11-29T07:56:08.269Z,-1.61
2022-11-29T07:57:08.294Z,-1.60
2022-11-29T07:58:08.232Z,-1.60
2022-11-29T07:59:14.264Z,-1.57
2022-11-29T08:00:14.237Z,-1.58
2022-11-29T08:01:14.302Z,-1.62
2022-11-29T08:02:14.209Z,-1.61
2022-11-29T08:03:14.146Z,-1.64
2022-11-29T08:04:14.290Z,-1.67
2022-11-29T08:05:14.110Z,-1.64
2022-11-29T08:06:14.139Z,-1.65
2022-11-29T08:07:14.068Z,-1.64
2022-11-29T08:08:14.078Z,-1.67
2022-11-29T08:09:14.039Z,-1.63
2022-11-29T08:10:14.163Z,-1.62
2022-11-29T08:11:14.015Z,-1.60
2022-11-29T08:12:14.013Z,-1.61
2022-11-29T08:13:13.977Z,-1.59
2022-11-29T08:14:18.893Z,-1.56
2022-11-29T08:15:19.018Z,-1.55
2022-11-29T08:16:19.015Z,-1.54
2022-11-29T08:17:18.962Z,-1.54
2022-11-29T08:18:18.929Z,-1.58
2022-11-29T08:19:23.888Z,-1.61
2022-11-29T08:20:24.065Z,-1.58
2022-11-29T08:21:23.910Z,-1.59
2022-11-29T08:22:23.933Z,-1.60
2022-11-29T08:23:23.878Z,-1.59
2022-11-29T08:24:23.877Z,-1.59
2022-11-29T08:25:23.844Z,-1.57
2022-11-29T08:26:28.223Z,-1.56
2022-11-29T08:27:23.812Z,-1.58
2022-11-29T08:28:23.864Z,-1.56
2022-11-29T08:29:23.812Z,-1.55
2022-11-29T08:30:23.864Z,-1.55
2022-11-29T08:31:23.859Z,-1.55
2022-11-29T08:32:23.948Z,-1.55
2022-11-29T08:33:23.816Z,-1.57
2022-11-29T08:34:23.793Z,-1.55
2022-11-29T08:35:23.767Z,-1.53
2022-11-29T08:36:23.783Z,-1.56
2022-11-29T08:37:23.763Z,-1.51
2022-11-29T08:38:23.780Z,-1.54
2022-11-29T08:39:23.752Z,-1.56
2022-11-29T08:40:23.808Z,-1.56
2022-11-29T08:41:23.716Z,-1.56
2022-11-29T08:42:23.839Z,-1.57
2022-11-29T08:43:23.697Z,-1.55
2022-11-29T08:44:23.762Z,-1.56
2022-11-29T08:45:23.794Z,-1.59
2022-11-29T08:46:23.800Z,-1.61
2022-11-29T08:47:23.702Z,-1.61
2022-11-29T08:48:23.722Z,-1.61
2022-11-29T08:49:23.694Z,-1.61
2022-11-29T08:50:23.877Z,-1.60
2022-11-29T08:51:23.688Z,-1.57
2022-11-29T08:52:23.693Z,-1.59
2022-11-29T08:53:23.815Z,-1.57
2022-11-29T08:54:23.693Z,-1.56
2022-11-29T08:55:23.747Z,-1.55
2022-11-29T08:57:16.748Z,-1.54
2022-11-29T08:57:40.239Z,-1.53
2022-11-29T08:58:23.690Z,-1.51
2022-11-29T08:59:23.676Z,-1.51
2022-11-29T09:00:23.774Z,-1.46
2022-11-29T09:01:23.772Z,-1.47
2022-11-29T09:02:23.832Z,-1.46
2022-11-29T09:03:23.651Z,-1.45
2022-11-29T09:04:23.763Z,-1.44
2022-11-29T09:05:23.627Z,-1.45
2022-11-29T09:06:23.636Z,-1.47
2022-11-29T09:07:23.626Z,-1.43
2022-11-29T09:08:23.637Z,-1.44
2022-11-29T09:09:23.603Z,-1.40
2022-11-29T09:10:23.580Z,-1.39
2022-11-29T09:11:23.555Z,-1.34
2022-11-29T09:12:23.569Z,-1.31
2022-11-29T09:13:23.546Z,-1.30
2022-11-29T09:14:23.662Z,-1.27
2022-11-29T09:15:23.579Z,-1.29
2022-11-29T09:16:28.484Z,-1.29
2022-11-29T09:17:34.451Z,-1.29
2022-11-29T09:18:34.536Z,-1.32
2022-11-29T09:19:34.623Z,-1.31
2022-11-29T09:20:34.539Z,-1.35
2022-11-29T09:21:34.520Z,-1.42
2022-11-29T09:22:34.532Z,-1.44
2022-11-29T09:23:34.516Z,-1.44
2022-11-29T09:24:34.542Z,-1.43
2022-11-29T09:25:34.686Z,-1.49
2022-11-29T09:26:34.572Z,-1.51
2022-11-29T09:27:34.541Z,-1.48
2022-11-29T09:28:34.537Z,-1.47
2022-11-29T09:29:34.531Z,-1.47
2022-11-29T09:30:34.565Z,-1.42
2022-11-29T09:31:35.041Z,-1.42
2022-11-29T09:32:34.619Z,-1.44
2022-11-29T09:33:34.547Z,-1.44
2022-11-29T09:34:34.594Z,-1.45
2022-11-29T09:35:34.568Z,-1.44
2022-11-29T09:36:34.620Z,-1.39
2022-11-29T09:37:34.564Z,-1.38
2022-11-29T09:38:34.596Z,-1.41
2022-11-29T09:39:34.587Z,-1.40
2022-11-29T09:40:34.592Z,-1.57
2022-11-29T09:41:34.576Z,-1.56
2022-11-29T09:42:34.605Z,-1.58
2022-11-29T09:43:34.575Z,-1.51
2022-11-29T09:44:34.565Z,-1.54
2022-11-29T09:45:34.615Z,-1.49
2022-11-29T09:46:34.564Z,-1.48
2022-11-29T09:47:34.648Z,-1.48
2022-11-29T09:48:34.566Z,-1.46
2022-11-29T09:49:34.543Z,-1.47
2022-11-29T09:50:34.578Z,-1.49
2022-11-29T09:51:35.960Z,-1.58
2022-11-29T09:52:34.553Z,-1.72
2022-11-29T09:53:34.530Z,-1.74
2022-11-29T09:54:34.667Z,-1.83
2022-11-29T09:55:34.510Z,-2.12
2022-11-29T09:56:34.529Z,-2.23
2022-11-29T09:57:34.543Z,-2.30
2022-11-29T09:58:34.667Z,-2.32
2022-11-29T09:59:34.517Z,-2.34
2022-11-29T10:00:34.534Z,-2.34
2022-11-29T10:01:34.619Z,-2.47
2022-11-29T10:02:34.581Z,-2.61
2022-11-29T10:05:28.478Z,-2.73
2022-11-29T10:06:28.668Z,-2.93
2022-11-29T10:07:28.634Z,-2.93
2022-11-29T10:08:33.468Z,-2.93
2022-11-29T10:09:34.189Z,-2.92
2022-11-29T10:10:33.547Z,-2.97
2022-11-29T10:11:33.581Z,-2.98
2022-11-29T10:12:33.553Z,-3.00
2022-11-29T10:13:33.583Z,-2.97
2022-11-29T10:14:33.554Z,-2.97
2022-11-29T10:15:33.585Z,-3.01
2022-11-29T10:16:33.616Z,-3.06
2022-11-29T10:17:33.625Z,-3.06
2022-11-29T10:18:33.606Z,-3.05
2022-11-29T10:19:33.625Z,-3.05
2022-11-29T10:20:37.942Z,-3.09
2022-11-29T10:21:33.614Z,-3.10
2022-11-29T10:22:33.599Z,-3.07
2022-11-29T10:23:33.725Z,-3.07
2022-11-29T10:24:33.638Z,-3.04
2022-11-29T10:25:33.655Z,-3.03
2022-11-29T10:26:35.185Z,-3.02
2022-11-29T10:27:33.664Z,-2.98
2022-11-29T10:28:33.669Z,-2.96
2022-11-29T10:29:33.802Z,-2.94
2022-11-29T10:30:33.682Z,-2.95
2022-11-29T10:31:33.667Z,-2.98
2022-11-29T10:32:33.660Z,-2.96
2022-11-29T10:33:33.675Z,-2.97
2022-11-29T10:34:33.665Z,-3.01
2022-11-29T10:35:33.814Z,-3.01
2022-11-29T10:36:33.667Z,-3.03
2022-11-29T10:37:33.696Z,-2.98
2022-11-29T10:38:33.685Z,-2.97
2022-11-29T10:39:33.833Z,-2.97
2022-11-29T10:40:33.697Z,-2.95
2022-11-29T10:41:33.846Z,-2.95
2022-11-29T10:42:33.701Z,-2.92
2022-11-29T10:43:33.727Z,-2.92
2022-11-29T10:44:33.717Z,-2.91
2022-11-29T10:45:33.764Z,-2.92
2022-11-29T10:46:33.787Z,-2.92
2022-11-29T10:47:33.874Z,-2.90
2022-11-29T10:48:33.756Z,-2.89
2022-11-29T10:49:33.783Z,-2.91
2022-11-29T10:50:33.785Z,-2.93
2022-11-29T10:51:33.774Z,-2.94
2022-11-29T10:52:33.785Z,-2.95
2022-11-29T10:53:33.957Z,-2.93
2022-11-29T10:54:33.788Z,-2.91
2022-11-29T10:55:33.809Z,-2.90
2022-11-29T10:56:33.810Z,-2.88
2022-11-29T10:57:33.837Z,-2.89
2022-11-29T10:58:33.839Z,-2.90
2022-11-29T10:59:33.870Z,-2.93
2022-11-29T11:00:33.991Z,-2.92
2022-11-29T11:01:33.948Z,-2.91
2022-11-29T11:02:33.869Z,-2.90
2022-11-29T11:03:33.888Z,-2.89
2022-11-29T11:04:33.852Z,-2.87
2022-11-29T11:05:39.888Z,-2.86
2022-11-29T11:06:39.898Z,-2.86
2022-11-29T11:07:39.969Z,-2.83
2022-11-29T11:08:39.887Z,-2.87
2022-11-29T11:09:39.902Z,-2.86
2022-11-29T11:10:40.067Z,-2.88
2022-11-29T11:11:39.911Z,-2.87
2022-11-29T11:12:39.914Z,-2.88
2022-11-29T11:13:39.875Z,-2.89
2022-11-29T11:14:39.916Z,-2.88
2022-11-29T11:15:39.884Z,-2.86
2022-11-29T11:16:39.960Z,-2.87
2022-11-29T11:17:39.888Z,-2.83
2022-11-29T11:18:39.932Z,-2.81
2022-11-29T11:19:39.919Z,-2.82
2022-11-29T11:20:44.935Z,-2.81
2022-11-29T11:21:50.866Z,-2.80
2022-11-29T11:22:50.996Z,-2.81
2022-11-29T11:23:50.970Z,-2.79
2022-11-29T11:24:50.992Z,-2.77
2022-11-29T11:25:50.975Z,-2.75
2022-11-29T11:26:51.018Z,-2.71
2022-11-29T11:27:51.049Z,-2.69
2022-11-29T11:28:51.063Z,-2.69
2022-11-29T11:29:51.226Z,-2.68
2022-11-29T11:30:51.294Z,-2.69
2022-11-29T11:31:51.111Z,-2.69
2022-11-29T11:32:51.203Z,-2.69
2022-11-29T11:33:51.131Z,-2.69
2022-11-29T11:34:51.221Z,-2.67
2022-11-29T11:35:51.318Z,-2.65
2022-11-29T11:36:51.217Z,-2.64
2022-11-29T11:37:51.230Z,-2.64
2022-11-29T11:38:51.256Z,-2.64
2022-11-29T11:39:51.282Z,-2.62
2022-11-29T11:40:58.150Z,-2.61
2022-11-29T11:41:56.298Z,-2.59
2022-11-29T11:42:56.296Z,-2.57
2022-11-29T11:43:56.309Z,-2.54
2022-11-29T11:44:56.327Z,-2.53
2022-11-29T11:45:56.532Z,-2.52
2022-11-29T11:46:56.341Z,-2.50
2022-11-29T11:47:56.400Z,-2.48
2022-11-29T11:48:56.396Z,-2.47
2022-11-29T11:50:01.294Z,-2.46
2022-11-29T11:51:01.541Z,-2.46
2022-11-29T11:52:01.434Z,-2.48
2022-11-29T11:53:01.474Z,-2.50
2022-11-29T11:54:01.471Z,-2.51
2022-11-29T11:55:01.546Z,-2.53
2022-11-29T11:56:01.531Z,-2.54
2022-11-29T11:57:01.577Z,-2.56
2022-11-29T11:58:09.042Z,-2.58
2022-11-29T11:59:01.592Z,-2.58
2022-11-29T12:00:06.611Z,-2.60
2022-11-29T12:01:04.412Z,-2.59
2022-11-29T12:02:01.762Z,-2.60
2022-11-29T12:03:01.804Z,-2.62
2022-11-29T12:04:01.643Z,-2.63
2022-11-29T12:05:01.663Z,-2.61
2022-11-29T12:06:01.655Z,-2.60
2022-11-29T12:07:01.679Z,-2.60
2022-11-29T12:08:08.362Z,-2.60
2022-11-29T12:09:01.715Z,-2.63
2022-11-29T12:10:01.720Z,-2.62
2022-11-29T12:11:07.032Z,-2.65
2022-11-29T12:12:01.759Z,-2.67
2022-11-29T12:13:01.788Z,-2.68
2022-11-29T12:14:01.922Z,-2.72
2022-11-29T12:15:01.845Z,-2.74
2022-11-29T12:16:01.861Z,-2.77
2022-11-29T12:17:06.738Z,-2.77
2022-11-29T12:18:12.788Z,-2.77
2022-11-29T12:19:17.900Z,-2.77
2022-11-29T12:20:22.809Z,-2.78
2022-11-29T12:21:23.062Z,-2.77
2022-11-29T12:22:22.936Z,-2.75
2022-11-29T12:23:27.831Z,-2.76
2022-11-29T12:24:27.983Z,-2.74
2022-11-29T12:25:27.951Z,-2.77
2022-11-29T12:26:56.290Z,-2.77
2022-11-29T12:27:31.972Z,-2.80
2022-11-29T12:28:31.967Z,-2.81
2022-11-29T12:29:32.109Z,-2.83
2022-11-29T12:30:31.969Z,-2.82
2022-11-29T12:31:32.217Z,-2.79
2022-11-29T12:32:32.010Z,-2.79
2022-11-29T12:33:31.993Z,-2.78
2022-11-29T12:34:32.004Z,-2.80
2022-11-29T12:35:32.152Z,-2.80
2022-11-29T12:36:32.041Z,-2.82
2022-11-29T12:37:32.085Z,-2.84
2022-11-29T12:38:32.036Z,-2.86
2022-11-29T12:39:32.066Z,-2.86
2022-11-29T12:40:32.073Z,-2.86
2022-11-29T12:41:32.200Z,-2.84
2022-11-29T12:42:32.247Z,-2.83
2022-11-29T12:43:32.096Z,-2.82
2022-11-29T12:44:32.125Z,-2.81
2022-11-29T12:45:32.166Z,-2.83
2022-11-29T12:46:32.219Z,-2.83
2022-11-29T12:47:36.432Z,-2.82
2022-11-29T12:48:32.178Z,-2.82
2022-11-29T12:49:32.213Z,-2.82
2022-11-29T12:50:32.193Z,-2.81
2022-11-29T12:51:32.207Z,-2.80
2022-11-29T12:52:32.219Z,-2.80
2022-11-29T12:53:38.246Z,-2.81
2022-11-29T12:54:38.251Z,-2.83
2022-11-29T12:55:38.234Z,-2.83
2022-11-29T12:56:44.147Z,-2.81
2022-11-29T12:57:44.386Z,-2.77
2022-11-29T12:58:45.887Z,-2.75
2022-11-29T12:59:44.312Z,-2.73
2022-11-29T13:00:44.292Z,-2.72
2022-11-29T13:01:44.404Z,-2.72